sensor_id;sensor_type;location;lat;lon;timestamp;P1;durP1;ratioP1;P2;durP2;ratioP2
23260;SDS011;11799;47.740;-3.390;2023-12-04T00:00:11;31.67;;;3.83;;
23260;SDS011;11799;47.740;-3.390;2023-12-04T00:02:40;36.08;;;4.32;;
23260;SDS011;11799;47.740;-3.390;2023-12-04T00:05:06;43.63;;;4.45;;
23260;SDS011;11799;47.740;-3.390;2023-12-04T00:07:32;30.77;;;4.15;;
23260;SDS011;11799;47.740;-3.390;2023-12-04T00:09:57;50.78;;;5.25;;
23260;SDS011;11799;47.740;-3.390;2023-12-04T00:12:23;32.03;;;4.72;;
23260;SDS011;11799;47.740;-3.390;2023-12-04T00:14:48;44.63;;;4.68;;
23260;SDS011;11799;47.740;-3.390;2023-12-04T00:17:14;30.95;;;3.63;;
23260;SDS011;11799;47.740;-3.390;2023-12-04T00:19:39;31.17;;;4.18;;
23260;SDS011;11799;47.740;-3.390;2023-12-04T00:22:05;33.58;;;3.72;;
23260;SDS011;11799;47.740;-3.390;2023-12-04T00:24:30;44.95;;;4.68;;
23260;SDS011;11799;47.740;-3.390;2023-12-04T00:26:56;39.20;;;4.70;;
23260;SDS011;11799;47.740;-3.390;2023-12-04T00:29:22;37.25;;;3.97;;
23260;SDS011;11799;47.740;-3.390;2023-12-04T00:31:47;47.63;;;4.28;;
23260;SDS011;11799;47.740;-3.390;2023-12-04T00:34:13;26.40;;;3.80;;
23260;SDS011;11799;47.740;-3.390;2023-12-04T00:36:38;35.28;;;4.72;;
23260;SDS011;11799;47.740;-3.390;2023-12-04T00:39:05;37.47;;;4.18;;
23260;SDS011;11799;47.740;-3.390;2023-12-04T00:41:30;48.88;;;5.05;;
23260;SDS011;11799;47.740;-3.390;2023-12-04T00:43:56;38.00;;;3.83;;
23260;SDS011;11799;47.740;-3.390;2023-12-04T00:46:22;40.28;;;5.05;;
23260;SDS011;11799;47.740;-3.390;2023-12-04T00:48:47;40.33;;;5.13;;
23260;SDS011;11799;47.740;-3.390;2023-12-04T00:51:13;36.90;;;4.25;;
23260;SDS011;11799;47.740;-3.390;2023-12-04T00:53:38;43.67;;;5.75;;
23260;SDS011;11799;47.740;-3.390;2023-12-04T00:56:04;42.50;;;4.82;;
23260;SDS011;11799;47.740;-3.390;2023-12-04T00:58:31;29.08;;;4.05;;
23260;SDS011;11799;47.740;-3.390;2023-12-04T01:00:56;44.22;;;4.13;;
23260;SDS011;11799;47.740;-3.390;2023-12-04T01:03:22;38.97;;;4.30;;
23260;SDS011;11799;47.740;-3.390;2023-12-04T01:05:48;34.42;;;4.93;;
23260;SDS011;11799;47.740;-3.390;2023-12-04T01:08:13;48.70;;;5.43;;
23260;SDS011;11799;47.740;-3.390;2023-12-04T01:10:39;28.15;;;4.68;;
23260;SDS011;11799;47.740;-3.390;2023-12-04T01:13:05;49.88;;;5.07;;
23260;SDS011;11799;47.740;-3.390;2023-12-04T01:15:30;44.60;;;4.95;;
23260;SDS011;11799;47.740;-3.390;2023-12-04T01:17:55;44.83;;;5.80;;
23260;SDS011;11799;47.740;-3.390;2023-12-04T01:20:21;48.67;;;4.97;;
23260;SDS011;11799;47.740;-3.390;2023-12-04T01:22:47;36.95;;;5.07;;
23260;SDS011;11799;47.740;-3.390;2023-12-04T01:25:12;40.97;;;4.50;;
23260;SDS011;11799;47.740;-3.390;2023-12-04T01:27:38;36.33;;;5.38;;
23260;SDS011;11799;47.740;-3.390;2023-12-04T01:30:05;36.13;;;4.75;;
23260;SDS011;11799;47.740;-3.390;2023-12-04T01:32:34;32.10;;;4.88;;
23260;SDS011;11799;47.740;-3.390;2023-12-04T01:35:00;40.15;;;4.88;;
23260;SDS011;11799;47.740;-3.390;2023-12-04T01:37:26;46.78;;;5.40;;
23260;SDS011;11799;47.740;-3.390;2023-12-04T01:39:52;38.40;;;4.88;;
23260;SDS011;11799;47.740;-3.390;2023-12-04T01:42:18;40.90;;;5.40;;
23260;SDS011;11799;47.740;-3.390;2023-12-04T01:44:43;49.70;;;5.70;;
23260;SDS011;11799;47.740;-3.390;2023-12-04T01:47:09;54.70;;;5.47;;
23260;SDS011;11799;47.740;-3.390;2023-12-04T01:49:36;36.42;;;4.90;;
23260;SDS011;11799;47.740;-3.390;2023-12-04T01:52:02;35.67;;;5.18;;
23260;SDS011;11799;47.740;-3.390;2023-12-04T01:54:28;35.72;;;4.78;;
23260;SDS011;11799;47.740;-3.390;2023-12-04T01:56:54;46.75;;;5.45;;
23260;SDS011;11799;47.740;-3.390;2023-12-04T01:59:20;31.27;;;4.63;;
23260;SDS011;11799;47.740;-3.390;2023-12-04T02:01:46;46.38;;;5.20;;
23260;SDS011;11799;47.740;-3.390;2023-12-04T02:04:12;43.80;;;4.95;;
23260;SDS011;11799;47.740;-3.390;2023-12-04T02:06:40;39.33;;;5.07;;
23260;SDS011;11799;47.740;-3.390;2023-12-04T02:09:05;38.55;;;5.63;;
23260;SDS011;11799;47.740;-3.390;2023-12-04T02:11:32;34.85;;;5.30;;
23260;SDS011;11799;47.740;-3.390;2023-12-04T02:13:58;47.03;;;5.28;;
23260;SDS011;11799;47.740;-3.390;2023-12-04T02:16:23;38.63;;;5.03;;
23260;SDS011;11799;47.740;-3.390;2023-12-04T02:18:52;37.88;;;5.57;;
23260;SDS011;11799;47.740;-3.390;2023-12-04T02:21:18;37.60;;;4.90;;
23260;SDS011;11799;47.740;-3.390;2023-12-04T02:23:47;50.08;;;5.53;;
23260;SDS011;11799;47.740;-3.390;2023-12-04T02:26:15;45.60;;;4.60;;
23260;SDS011;11799;47.740;-3.390;2023-12-04T02:28:43;49.65;;;5.70;;
23260;SDS011;11799;47.740;-3.390;2023-12-04T02:31:16;47.63;;;5.55;;
23260;SDS011;11799;47.740;-3.390;2023-12-04T02:33:43;40.60;;;4.90;;
23260;SDS011;11799;47.740;-3.390;2023-12-04T02:36:10;53.38;;;6.05;;
23260;SDS011;11799;47.740;-3.390;2023-12-04T02:38:37;43.85;;;4.75;;
23260;SDS011;11799;47.740;-3.390;2023-12-04T02:41:03;42.78;;;4.75;;
23260;SDS011;11799;47.740;-3.390;2023-12-04T02:43:29;46.00;;;5.25;;
23260;SDS011;11799;47.740;-3.390;2023-12-04T02:45:55;38.58;;;5.10;;
23260;SDS011;11799;47.740;-3.390;2023-12-04T02:48:20;42.17;;;5.40;;
23260;SDS011;11799;47.740;-3.390;2023-12-04T02:50:45;67.65;;;6.00;;
23260;SDS011;11799;47.740;-3.390;2023-12-04T02:53:11;43.72;;;5.03;;
23260;SDS011;11799;47.740;-3.390;2023-12-04T02:55:36;37.55;;;4.68;;
23260;SDS011;11799;47.740;-3.390;2023-12-04T02:58:02;44.80;;;5.07;;
23260;SDS011;11799;47.740;-3.390;2023-12-04T03:00:28;41.25;;;4.05;;
23260;SDS011;11799;47.740;-3.390;2023-12-04T03:02:53;47.08;;;4.30;;
23260;SDS011;11799;47.740;-3.390;2023-12-04T03:05:19;41.72;;;4.43;;
23260;SDS011;11799;47.740;-3.390;2023-12-04T03:07:44;39.83;;;4.43;;
23260;SDS011;11799;47.740;-3.390;2023-12-04T03:10:11;43.42;;;3.30;;
23260;SDS011;11799;47.740;-3.390;2023-12-04T03:12:36;42.88;;;3.53;;
23260;SDS011;11799;47.740;-3.390;2023-12-04T03:15:05;45.72;;;4.80;;
23260;SDS011;11799;47.740;-3.390;2023-12-04T03:17:30;38.15;;;4.13;;
23260;SDS011;11799;47.740;-3.390;2023-12-04T03:19:56;56.85;;;4.70;;
23260;SDS011;11799;47.740;-3.390;2023-12-04T03:22:21;49.42;;;4.47;;
23260;SDS011;11799;47.740;-3.390;2023-12-04T03:24:47;59.33;;;4.80;;
23260;SDS011;11799;47.740;-3.390;2023-12-04T03:27:12;50.72;;;4.97;;
23260;SDS011;11799;47.740;-3.390;2023-12-04T03:29:38;41.67;;;5.00;;
23260;SDS011;11799;47.740;-3.390;2023-12-04T03:32:03;60.70;;;5.15;;
23260;SDS011;11799;47.740;-3.390;2023-12-04T03:34:29;44.20;;;4.80;;
23260;SDS011;11799;47.740;-3.390;2023-12-04T03:36:54;34.33;;;4.72;;
23260;SDS011;11799;47.740;-3.390;2023-12-04T03:39:20;40.42;;;4.78;;
23260;SDS011;11799;47.740;-3.390;2023-12-04T03:41:46;42.28;;;4.88;;
23260;SDS011;11799;47.740;-3.390;2023-12-04T03:44:12;53.65;;;4.70;;
23260;SDS011;11799;47.740;-3.390;2023-12-04T03:46:38;46.92;;;5.30;;
23260;SDS011;11799;47.740;-3.390;2023-12-04T03:49:04;61.97;;;5.28;;
23260;SDS011;11799;47.740;-3.390;2023-12-04T03:51:30;48.70;;;4.70;;
23260;SDS011;11799;47.740;-3.390;2023-12-04T03:53:56;49.28;;;4.30;;
23260;SDS011;11799;47.740;-3.390;2023-12-04T03:56:21;38.30;;;4.63;;
23260;SDS011;11799;47.740;-3.390;2023-12-04T03:58:47;49.08;;;4.90;;
23260;SDS011;11799;47.740;-3.390;2023-12-04T04:01:12;42.90;;;4.07;;
23260;SDS011;11799;47.740;-3.390;2023-12-04T04:03:38;41.67;;;4.07;;
23260;SDS011;11799;47.740;-3.390;2023-12-04T04:06:03;48.83;;;4.90;;
23260;SDS011;11799;47.740;-3.390;2023-12-04T04:08:29;41.55;;;3.97;;
23260;SDS011;11799;47.740;-3.390;2023-12-04T04:10:55;34.78;;;3.35;;
23260;SDS011;11799;47.740;-3.390;2023-12-04T04:13:20;52.60;;;4.63;;
23260;SDS011;11799;47.740;-3.390;2023-12-04T04:15:46;49.65;;;3.85;;
23260;SDS011;11799;47.740;-3.390;2023-12-04T04:18:11;43.88;;;3.67;;
23260;SDS011;11799;47.740;-3.390;2023-12-04T04:20:37;46.33;;;5.13;;
23260;SDS011;11799;47.740;-3.390;2023-12-04T04:23:02;69.53;;;5.30;;
23260;SDS011;11799;47.740;-3.390;2023-12-04T04:25:28;41.65;;;4.30;;
23260;SDS011;11799;47.740;-3.390;2023-12-04T04:27:53;53.90;;;5.22;;
23260;SDS011;11799;47.740;-3.390;2023-12-04T04:30:18;67.13;;;5.35;;
23260;SDS011;11799;47.740;-3.390;2023-12-04T04:32:44;77.45;;;5.82;;
23260;SDS011;11799;47.740;-3.390;2023-12-04T04:35:09;55.08;;;4.32;;
23260;SDS011;11799;47.740;-3.390;2023-12-04T04:37:35;55.33;;;5.45;;
23260;SDS011;11799;47.740;-3.390;2023-12-04T04:40:01;40.83;;;3.78;;
23260;SDS011;11799;47.740;-3.390;2023-12-04T04:42:27;23.30;;;2.38;;
23260;SDS011;11799;47.740;-3.390;2023-12-04T04:44:52;22.65;;;2.45;;
23260;SDS011;11799;47.740;-3.390;2023-12-04T04:47:18;26.33;;;2.60;;
23260;SDS011;11799;47.740;-3.390;2023-12-04T04:49:43;30.30;;;3.13;;
23260;SDS011;11799;47.740;-3.390;2023-12-04T04:52:09;52.45;;;3.35;;
23260;SDS011;11799;47.740;-3.390;2023-12-04T04:54:34;39.72;;;3.33;;
23260;SDS011;11799;47.740;-3.390;2023-12-04T04:57:00;52.95;;;4.88;;
23260;SDS011;11799;47.740;-3.390;2023-12-04T04:59:25;36.17;;;3.00;;
23260;SDS011;11799;47.740;-3.390;2023-12-04T05:01:52;32.95;;;2.65;;
23260;SDS011;11799;47.740;-3.390;2023-12-04T05:04:17;23.65;;;2.60;;
23260;SDS011;11799;47.740;-3.390;2023-12-04T05:06:43;32.10;;;5.60;;
23260;SDS011;11799;47.740;-3.390;2023-12-04T05:09:08;31.80;;;3.50;;
23260;SDS011;11799;47.740;-3.390;2023-12-04T05:11:34;24.90;;;2.05;;
23260;SDS011;11799;47.740;-3.390;2023-12-04T05:13:59;26.17;;;2.30;;
23260;SDS011;11799;47.740;-3.390;2023-12-04T05:16:25;33.63;;;2.58;;
23260;SDS011;11799;47.740;-3.390;2023-12-04T05:18:50;20.30;;;2.35;;
23260;SDS011;11799;47.740;-3.390;2023-12-04T05:21:16;39.60;;;2.97;;
23260;SDS011;11799;47.740;-3.390;2023-12-04T05:23:41;34.85;;;2.85;;
23260;SDS011;11799;47.740;-3.390;2023-12-04T05:26:07;49.38;;;3.25;;
23260;SDS011;11799;47.740;-3.390;2023-12-04T05:28:33;35.83;;;2.75;;
23260;SDS011;11799;47.740;-3.390;2023-12-04T05:30:59;43.45;;;2.60;;
23260;SDS011;11799;47.740;-3.390;2023-12-04T05:33:25;29.92;;;2.20;;
23260;SDS011;11799;47.740;-3.390;2023-12-04T05:35:51;24.33;;;2.65;;
23260;SDS011;11799;47.740;-3.390;2023-12-04T05:38:17;20.58;;;2.17;;
23260;SDS011;11799;47.740;-3.390;2023-12-04T05:40:43;35.30;;;3.13;;
23260;SDS011;11799;47.740;-3.390;2023-12-04T05:43:08;52.25;;;3.42;;
23260;SDS011;11799;47.740;-3.390;2023-12-04T05:45:34;26.15;;;2.72;;
23260;SDS011;11799;47.740;-3.390;2023-12-04T05:48:00;29.55;;;3.00;;
23260;SDS011;11799;47.740;-3.390;2023-12-04T05:50:25;39.08;;;3.65;;
23260;SDS011;11799;47.740;-3.390;2023-12-04T05:52:51;30.65;;;2.60;;
23260;SDS011;11799;47.740;-3.390;2023-12-04T05:55:17;31.20;;;2.92;;
23260;SDS011;11799;47.740;-3.390;2023-12-04T05:57:43;43.03;;;3.22;;
23260;SDS011;11799;47.740;-3.390;2023-12-04T06:00:09;38.08;;;2.40;;
23260;SDS011;11799;47.740;-3.390;2023-12-04T06:02:38;25.08;;;2.33;;
23260;SDS011;11799;47.740;-3.390;2023-12-04T06:05:05;29.85;;;2.55;;
23260;SDS011;11799;47.740;-3.390;2023-12-04T06:07:31;31.98;;;2.55;;
23260;SDS011;11799;47.740;-3.390;2023-12-04T06:09:56;26.20;;;2.13;;
23260;SDS011;11799;47.740;-3.390;2023-12-04T06:12:22;18.98;;;1.90;;
23260;SDS011;11799;47.740;-3.390;2023-12-04T06:14:47;14.25;;;1.30;;
23260;SDS011;11799;47.740;-3.390;2023-12-04T06:17:13;10.55;;;1.50;;
23260;SDS011;11799;47.740;-3.390;2023-12-04T06:19:39;9.00;;;1.63;;
23260;SDS011;11799;47.740;-3.390;2023-12-04T06:22:05;14.73;;;1.50;;
23260;SDS011;11799;47.740;-3.390;2023-12-04T06:24:30;13.10;;;1.30;;
23260;SDS011;11799;47.740;-3.390;2023-12-04T06:26:56;9.85;;;1.42;;
23260;SDS011;11799;47.740;-3.390;2023-12-04T06:29:23;10.25;;;1.67;;
23260;SDS011;11799;47.740;-3.390;2023-12-04T06:31:48;18.83;;;2.10;;
23260;SDS011;11799;47.740;-3.390;2023-12-04T06:34:14;14.82;;;1.20;;
23260;SDS011;11799;47.740;-3.390;2023-12-04T06:36:40;19.98;;;1.80;;
23260;SDS011;11799;47.740;-3.390;2023-12-04T06:39:09;19.13;;;2.25;;
23260;SDS011;11799;47.740;-3.390;2023-12-04T06:41:37;11.52;;;1.30;;
23260;SDS011;11799;47.740;-3.390;2023-12-04T06:44:06;15.55;;;1.35;;
23260;SDS011;11799;47.740;-3.390;2023-12-04T06:46:34;11.27;;;1.70;;
23260;SDS011;11799;47.740;-3.390;2023-12-04T06:51:29;30.00;;;2.45;;
23260;SDS011;11799;47.740;-3.390;2023-12-04T06:53:54;21.65;;;3.03;;
23260;SDS011;11799;47.740;-3.390;2023-12-04T06:56:20;29.52;;;2.75;;
23260;SDS011;11799;47.740;-3.390;2023-12-04T06:58:45;25.08;;;2.67;;
23260;SDS011;11799;47.740;-3.390;2023-12-04T07:01:11;16.45;;;2.00;;
23260;SDS011;11799;47.740;-3.390;2023-12-04T07:03:36;15.20;;;2.40;;
23260;SDS011;11799;47.740;-3.390;2023-12-04T07:06:02;11.25;;;1.60;;
23260;SDS011;11799;47.740;-3.390;2023-12-04T07:08:27;9.63;;;1.33;;
23260;SDS011;11799;47.740;-3.390;2023-12-04T07:10:53;11.02;;;1.42;;
23260;SDS011;11799;47.740;-3.390;2023-12-04T07:13:18;21.80;;;1.92;;
23260;SDS011;11799;47.740;-3.390;2023-12-04T07:15:44;6.95;;;1.48;;
23260;SDS011;11799;47.740;-3.390;2023-12-04T07:18:09;12.93;;;1.50;;
23260;SDS011;11799;47.740;-3.390;2023-12-04T07:20:35;11.35;;;1.48;;
23260;SDS011;11799;47.740;-3.390;2023-12-04T07:23:01;14.45;;;1.70;;
23260;SDS011;11799;47.740;-3.390;2023-12-04T07:25:27;18.38;;;1.83;;
23260;SDS011;11799;47.740;-3.390;2023-12-04T07:27:52;17.98;;;2.38;;
23260;SDS011;11799;47.740;-3.390;2023-12-04T07:30:18;14.57;;;2.17;;
23260;SDS011;11799;47.740;-3.390;2023-12-04T07:32:45;15.93;;;2.17;;
23260;SDS011;11799;47.740;-3.390;2023-12-04T07:35:11;16.13;;;2.05;;
23260;SDS011;11799;47.740;-3.390;2023-12-04T07:37:37;28.13;;;2.42;;
23260;SDS011;11799;47.740;-3.390;2023-12-04T07:40:02;18.67;;;2.03;;
23260;SDS011;11799;47.740;-3.390;2023-12-04T07:42:31;26.42;;;2.17;;
23260;SDS011;11799;47.740;-3.390;2023-12-04T07:44:56;13.13;;;2.00;;
23260;SDS011;11799;47.740;-3.390;2023-12-04T07:47:22;24.58;;;2.55;;
23260;SDS011;11799;47.740;-3.390;2023-12-04T07:49:48;29.38;;;2.63;;
23260;SDS011;11799;47.740;-3.390;2023-12-04T07:52:14;14.20;;;1.77;;
23260;SDS011;11799;47.740;-3.390;2023-12-04T07:54:40;32.00;;;2.50;;
23260;SDS011;11799;47.740;-3.390;2023-12-04T07:57:05;14.23;;;1.85;;
23260;SDS011;11799;47.740;-3.390;2023-12-04T07:59:32;25.23;;;2.40;;
23260;SDS011;11799;47.740;-3.390;2023-12-04T08:01:57;33.35;;;2.53;;
23260;SDS011;11799;47.740;-3.390;2023-12-04T08:04:23;24.58;;;2.38;;
23260;SDS011;11799;47.740;-3.390;2023-12-04T08:06:48;31.33;;;2.75;;
23260;SDS011;11799;47.740;-3.390;2023-12-04T08:09:15;33.17;;;3.22;;
23260;SDS011;11799;47.740;-3.390;2023-12-04T08:11:42;25.65;;;3.05;;
23260;SDS011;11799;47.740;-3.390;2023-12-04T08:14:07;20.48;;;2.70;;
23260;SDS011;11799;47.740;-3.390;2023-12-04T08:16:33;22.02;;;2.88;;
23260;SDS011;11799;47.740;-3.390;2023-12-04T08:18:59;26.65;;;2.95;;
23260;SDS011;11799;47.740;-3.390;2023-12-04T08:21:24;30.10;;;3.13;;
23260;SDS011;11799;47.740;-3.390;2023-12-04T08:23:50;33.92;;;3.03;;
23260;SDS011;11799;47.740;-3.390;2023-12-04T08:26:24;16.65;;;2.83;;
23260;SDS011;11799;47.740;-3.390;2023-12-04T08:28:51;25.85;;;2.28;;
23260;SDS011;11799;47.740;-3.390;2023-12-04T08:31:17;13.02;;;2.22;;
23260;SDS011;11799;47.740;-3.390;2023-12-04T08:33:42;23.67;;;2.33;;
23260;SDS011;11799;47.740;-3.390;2023-12-04T08:36:09;24.52;;;2.45;;
23260;SDS011;11799;47.740;-3.390;2023-12-04T08:38:35;14.48;;;2.05;;
23260;SDS011;11799;47.740;-3.390;2023-12-04T08:41:01;22.80;;;2.78;;
23260;SDS011;11799;47.740;-3.390;2023-12-04T08:43:27;16.63;;;2.95;;
23260;SDS011;11799;47.740;-3.390;2023-12-04T08:45:54;25.13;;;3.13;;
23260;SDS011;11799;47.740;-3.390;2023-12-04T08:48:19;28.17;;;4.03;;
23260;SDS011;11799;47.740;-3.390;2023-12-04T08:50:45;22.88;;;3.15;;
23260;SDS011;11799;47.740;-3.390;2023-12-04T08:53:10;47.83;;;5.70;;
23260;SDS011;11799;47.740;-3.390;2023-12-04T08:55:37;33.10;;;3.08;;
23260;SDS011;11799;47.740;-3.390;2023-12-04T08:58:02;20.35;;;2.47;;
23260;SDS011;11799;47.740;-3.390;2023-12-04T09:00:29;18.20;;;2.88;;
23260;SDS011;11799;47.740;-3.390;2023-12-04T09:02:54;18.15;;;2.20;;
23260;SDS011;11799;47.740;-3.390;2023-12-04T09:05:20;16.90;;;2.40;;
23260;SDS011;11799;47.740;-3.390;2023-12-04T09:07:46;32.92;;;3.15;;
23260;SDS011;11799;47.740;-3.390;2023-12-04T09:10:11;27.88;;;2.00;;
23260;SDS011;11799;47.740;-3.390;2023-12-04T09:12:37;24.08;;;2.75;;
23260;SDS011;11799;47.740;-3.390;2023-12-04T09:15:04;28.00;;;2.70;;
23260;SDS011;11799;47.740;-3.390;2023-12-04T09:17:30;27.23;;;2.40;;
23260;SDS011;11799;47.740;-3.390;2023-12-04T09:19:56;16.65;;;2.50;;
23260;SDS011;11799;47.740;-3.390;2023-12-04T09:22:22;25.08;;;3.45;;
23260;SDS011;11799;47.740;-3.390;2023-12-04T09:24:47;29.40;;;2.90;;
23260;SDS011;11799;47.740;-3.390;2023-12-04T09:27:13;21.73;;;2.35;;
23260;SDS011;11799;47.740;-3.390;2023-12-04T09:29:40;19.45;;;2.60;;
23260;SDS011;11799;47.740;-3.390;2023-12-04T09:32:06;21.40;;;2.45;;
23260;SDS011;11799;47.740;-3.390;2023-12-04T09:34:31;29.40;;;2.35;;
23260;SDS011;11799;47.740;-3.390;2023-12-04T09:36:57;13.23;;;2.40;;
23260;SDS011;11799;47.740;-3.390;2023-12-04T09:39:22;18.88;;;1.92;;
23260;SDS011;11799;47.740;-3.390;2023-12-04T09:41:48;23.40;;;2.67;;
23260;SDS011;11799;47.740;-3.390;2023-12-04T09:44:15;29.90;;;3.60;;
23260;SDS011;11799;47.740;-3.390;2023-12-04T09:46:41;29.00;;;2.33;;
23260;SDS011;11799;47.740;-3.390;2023-12-04T09:49:08;36.33;;;2.95;;
23260;SDS011;11799;47.740;-3.390;2023-12-04T09:51:33;40.70;;;4.43;;
23260;SDS011;11799;47.740;-3.390;2023-12-04T09:54:00;35.05;;;3.38;;
23260;SDS011;11799;47.740;-3.390;2023-12-04T09:56:32;39.97;;;3.60;;
23260;SDS011;11799;47.740;-3.390;2023-12-04T09:58:59;33.08;;;3.45;;
23260;SDS011;11799;47.740;-3.390;2023-12-04T10:01:28;37.67;;;3.50;;
23260;SDS011;11799;47.740;-3.390;2023-12-04T10:03:56;32.10;;;3.85;;
23260;SDS011;11799;47.740;-3.390;2023-12-04T10:06:25;30.85;;;4.72;;
23260;SDS011;11799;47.740;-3.390;2023-12-04T10:08:53;49.13;;;4.80;;
23260;SDS011;11799;47.740;-3.390;2023-12-04T10:11:19;33.10;;;3.92;;
23260;SDS011;11799;47.740;-3.390;2023-12-04T10:13:44;31.13;;;3.88;;
23260;SDS011;11799;47.740;-3.390;2023-12-04T10:16:09;30.08;;;3.55;;
23260;SDS011;11799;47.740;-3.390;2023-12-04T10:18:35;36.88;;;3.92;;
23260;SDS011;11799;47.740;-3.390;2023-12-04T10:21:02;30.02;;;3.58;;
23260;SDS011;11799;47.740;-3.390;2023-12-04T10:23:40;32.53;;;4.10;;
23260;SDS011;11799;47.740;-3.390;2023-12-04T10:26:08;28.95;;;3.45;;
23260;SDS011;11799;47.740;-3.390;2023-12-04T10:28:34;20.15;;;3.30;;
23260;SDS011;11799;47.740;-3.390;2023-12-04T10:31:00;11.52;;;2.53;;
23260;SDS011;11799;47.740;-3.390;2023-12-04T10:33:25;16.67;;;3.60;;
23260;SDS011;11799;47.740;-3.390;2023-12-04T10:35:52;11.52;;;2.53;;
23260;SDS011;11799;47.740;-3.390;2023-12-04T10:38:18;16.52;;;2.22;;
23260;SDS011;11799;47.740;-3.390;2023-12-04T10:40:44;17.42;;;3.58;;
23260;SDS011;11799;47.740;-3.390;2023-12-04T10:45:39;7.35;;;1.80;;
23260;SDS011;11799;47.740;-3.390;2023-12-04T10:48:07;9.43;;;1.60;;
23260;SDS011;11799;47.740;-3.390;2023-12-04T10:50:34;16.85;;;1.70;;
23260;SDS011;11799;47.740;-3.390;2023-12-04T10:53:03;5.97;;;1.92;;
23260;SDS011;11799;47.740;-3.390;2023-12-04T10:55:33;8.68;;;1.60;;
23260;SDS011;11799;47.740;-3.390;2023-12-04T10:57:59;7.93;;;2.13;;
23260;SDS011;11799;47.740;-3.390;2023-12-04T11:00:29;12.85;;;2.90;;
23260;SDS011;11799;47.740;-3.390;2023-12-04T11:02:55;18.42;;;2.47;;
23260;SDS011;11799;47.740;-3.390;2023-12-04T11:05:24;8.43;;;2.40;;
23260;SDS011;11799;47.740;-3.390;2023-12-04T11:07:52;13.13;;;2.22;;
23260;SDS011;11799;47.740;-3.390;2023-12-04T11:12:48;12.30;;;2.60;;
23260;SDS011;11799;47.740;-3.390;2023-12-04T11:15:17;13.50;;;3.10;;
23260;SDS011;11799;47.740;-3.390;2023-12-04T11:17:46;17.00;;;2.60;;
23260;SDS011;11799;47.740;-3.390;2023-12-04T11:20:17;14.90;;;2.42;;
23260;SDS011;11799;47.740;-3.390;2023-12-04T11:22:45;10.57;;;2.10;;
23260;SDS011;11799;47.740;-3.390;2023-12-04T11:25:13;18.75;;;2.53;;
23260;SDS011;11799;47.740;-3.390;2023-12-04T11:27:39;11.30;;;2.50;;
23260;SDS011;11799;47.740;-3.390;2023-12-04T11:30:06;13.88;;;2.15;;
23260;SDS011;11799;47.740;-3.390;2023-12-04T11:32:43;5.60;;;2.08;;
23260;SDS011;11799;47.740;-3.390;2023-12-04T11:35:13;15.38;;;2.15;;
23260;SDS011;11799;47.740;-3.390;2023-12-04T11:37:40;10.55;;;1.77;;
23260;SDS011;11799;47.740;-3.390;2023-12-04T11:40:10;19.88;;;2.45;;
23260;SDS011;11799;47.740;-3.390;2023-12-04T11:42:37;9.40;;;1.42;;
23260;SDS011;11799;47.740;-3.390;2023-12-04T11:45:04;17.48;;;2.25;;
23260;SDS011;11799;47.740;-3.390;2023-12-04T11:47:31;10.70;;;1.60;;
23260;SDS011;11799;47.740;-3.390;2023-12-04T11:50:14;11.63;;;2.10;;
23260;SDS011;11799;47.740;-3.390;2023-12-04T11:52:39;15.77;;;2.00;;
23260;SDS011;11799;47.740;-3.390;2023-12-04T11:55:05;15.27;;;2.88;;
23260;SDS011;11799;47.740;-3.390;2023-12-04T11:57:32;12.32;;;2.30;;
23260;SDS011;11799;47.740;-3.390;2023-12-04T12:02:38;8.50;;;2.05;;
23260;SDS011;11799;47.740;-3.390;2023-12-04T12:05:05;10.38;;;2.05;;
23260;SDS011;11799;47.740;-3.390;2023-12-04T12:07:33;15.95;;;2.78;;
23260;SDS011;11799;47.740;-3.390;2023-12-04T12:09:59;12.43;;;2.35;;
23260;SDS011;11799;47.740;-3.390;2023-12-04T12:12:25;12.90;;;1.67;;
23260;SDS011;11799;47.740;-3.390;2023-12-04T12:14:51;16.50;;;2.17;;
23260;SDS011;11799;47.740;-3.390;2023-12-04T12:17:17;8.30;;;2.10;;
23260;SDS011;11799;47.740;-3.390;2023-12-04T12:19:42;14.05;;;2.13;;
23260;SDS011;11799;47.740;-3.390;2023-12-04T12:22:09;15.07;;;2.47;;
23260;SDS011;11799;47.740;-3.390;2023-12-04T12:24:34;9.80;;;1.98;;
23260;SDS011;11799;47.740;-3.390;2023-12-04T12:27:00;14.15;;;2.65;;
23260;SDS011;11799;47.740;-3.390;2023-12-04T12:29:27;13.63;;;1.95;;
23260;SDS011;11799;47.740;-3.390;2023-12-04T12:31:53;7.55;;;1.92;;
23260;SDS011;11799;47.740;-3.390;2023-12-04T12:34:18;10.43;;;1.70;;
23260;SDS011;11799;47.740;-3.390;2023-12-04T12:36:44;13.45;;;2.03;;
23260;SDS011;11799;47.740;-3.390;2023-12-04T12:39:09;19.48;;;2.25;;
23260;SDS011;11799;47.740;-3.390;2023-12-04T12:41:35;14.85;;;2.00;;
23260;SDS011;11799;47.740;-3.390;2023-12-04T12:44:00;13.95;;;1.75;;
23260;SDS011;11799;47.740;-3.390;2023-12-04T12:46:28;13.60;;;2.10;;
23260;SDS011;11799;47.740;-3.390;2023-12-04T12:48:54;15.48;;;2.15;;
23260;SDS011;11799;47.740;-3.390;2023-12-04T12:51:19;14.77;;;1.85;;
23260;SDS011;11799;47.740;-3.390;2023-12-04T12:53:45;11.30;;;1.88;;
23260;SDS011;11799;47.740;-3.390;2023-12-04T12:56:11;15.00;;;2.60;;
23260;SDS011;11799;47.740;-3.390;2023-12-04T12:58:36;24.20;;;2.67;;
23260;SDS011;11799;47.740;-3.390;2023-12-04T13:01:02;15.20;;;2.25;;
23260;SDS011;11799;47.740;-3.390;2023-12-04T13:03:28;23.23;;;2.80;;
23260;SDS011;11799;47.740;-3.390;2023-12-04T13:05:56;12.73;;;1.95;;
23260;SDS011;11799;47.740;-3.390;2023-12-04T13:08:22;17.13;;;2.05;;
23260;SDS011;11799;47.740;-3.390;2023-12-04T13:10:48;21.40;;;2.15;;
23260;SDS011;11799;47.740;-3.390;2023-12-04T13:13:13;13.90;;;1.95;;
23260;SDS011;11799;47.740;-3.390;2023-12-04T13:15:40;17.08;;;1.48;;
23260;SDS011;11799;47.740;-3.390;2023-12-04T13:18:06;17.98;;;2.00;;
23260;SDS011;11799;47.740;-3.390;2023-12-04T13:20:32;8.48;;;1.85;;
23260;SDS011;11799;47.740;-3.390;2023-12-04T13:22:59;7.28;;;1.55;;
23260;SDS011;11799;47.740;-3.390;2023-12-04T13:25:25;12.77;;;1.88;;
23260;SDS011;11799;47.740;-3.390;2023-12-04T13:27:51;8.23;;;1.45;;
23260;SDS011;11799;47.740;-3.390;2023-12-04T13:30:16;6.93;;;1.85;;
23260;SDS011;11799;47.740;-3.390;2023-12-04T13:32:42;15.15;;;2.25;;
23260;SDS011;11799;47.740;-3.390;2023-12-04T13:35:08;13.75;;;1.73;;
23260;SDS011;11799;47.740;-3.390;2023-12-04T13:37:34;25.25;;;2.30;;
23260;SDS011;11799;47.740;-3.390;2023-12-04T13:40:04;17.55;;;2.00;;
23260;SDS011;11799;47.740;-3.390;2023-12-04T13:42:34;10.25;;;1.98;;
23260;SDS011;11799;47.740;-3.390;2023-12-04T13:45:19;16.95;;;2.45;;
23260;SDS011;11799;47.740;-3.390;2023-12-04T13:47:48;13.40;;;1.88;;
23260;SDS011;11799;47.740;-3.390;2023-12-04T13:50:14;12.88;;;1.98;;
23260;SDS011;11799;47.740;-3.390;2023-12-04T13:52:40;9.38;;;2.15;;
23260;SDS011;11799;47.740;-3.390;2023-12-04T13:55:08;16.73;;;2.28;;
23260;SDS011;11799;47.740;-3.390;2023-12-04T13:57:43;9.93;;;1.90;;
23260;SDS011;11799;47.740;-3.390;2023-12-04T14:00:21;16.25;;;2.00;;
23260;SDS011;11799;47.740;-3.390;2023-12-04T14:02:47;23.30;;;2.25;;
23260;SDS011;11799;47.740;-3.390;2023-12-04T14:05:12;15.90;;;2.22;;
23260;SDS011;11799;47.740;-3.390;2023-12-04T14:07:41;15.23;;;2.13;;
23260;SDS011;11799;47.740;-3.390;2023-12-04T14:10:08;14.43;;;2.05;;
23260;SDS011;11799;47.740;-3.390;2023-12-04T14:12:34;20.35;;;2.05;;
23260;SDS011;11799;47.740;-3.390;2023-12-04T14:15:02;27.05;;;2.85;;
23260;SDS011;11799;47.740;-3.390;2023-12-04T14:17:28;15.32;;;1.77;;
23260;SDS011;11799;47.740;-3.390;2023-12-04T14:19:54;17.27;;;3.28;;
23260;SDS011;11799;47.740;-3.390;2023-12-04T14:22:20;18.70;;;2.63;;
23260;SDS011;11799;47.740;-3.390;2023-12-04T14:24:45;14.05;;;1.98;;
23260;SDS011;11799;47.740;-3.390;2023-12-04T14:27:10;14.68;;;2.13;;